sensor_id;sensor_type;location;lat;lon;timestamp;pressure;altitude;pressure_sealevel;temperature;humidity
35704;BME280;21820;51.112;13.762;2023-01-20T00:01:33;98695.34;;;21.38;63.12
35704;BME280;21820;51.112;13.762;2023-01-20T00:04:02;98701.19;;;21.40;62.23
35704;BME280;21820;51.112;13.762;2023-01-20T00:06:28;98695.19;;;21.40;62.01
35704;BME280;21820;51.112;13.762;2023-01-20T00:08:57;98699.56;;;21.39;62.65
35704;BME280;21820;51.112;13.762;2023-01-20T00:11:30;98704.81;;;21.39;63.27
35704;BME280;21820;51.112;13.762;2023-01-20T00:13:59;98707.09;;;21.42;62.48
35704;BME280;21820;51.112;13.762;2023-01-20T00:16:26;98710.38;;;21.44;62.45
35704;BME280;21820;51.112;13.762;2023-01-20T00:18:52;98688.13;;;21.40;63.64
35704;BME280;21820;51.112;13.762;2023-01-20T00:21:19;98704.16;;;21.45;62.39
35704;BME280;21820;51.112;13.762;2023-01-20T00:23:46;98704.47;;;21.42;62.02
35704;BME280;21820;51.112;13.762;2023-01-20T00:26:21;98702.38;;;21.46;63.23
35704;BME280;21820;51.112;13.762;2023-01-20T00:28:49;98715.44;;;21.46;62.63
35704;BME280;21820;51.112;13.762;2023-01-20T00:31:20;98713.00;;;21.44;63.60
35704;BME280;21820;51.112;13.762;2023-01-20T00:33:48;98713.16;;;21.43;62.73
35704;BME280;21820;51.112;13.762;2023-01-20T00:36:17;98711.38;;;21.43;62.83
35704;BME280;21820;51.112;13.762;2023-01-20T00:38:44;98725.41;;;21.42;62.63
35704;BME280;21820;51.112;13.762;2023-01-20T00:41:10;98719.56;;;21.48;64.07
35704;BME280;21820;51.112;13.762;2023-01-20T00:43:42;98729.50;;;21.45;63.28
35704;BME280;21820;51.112;13.762;2023-01-20T00:46:09;98732.28;;;21.43;62.26
35704;BME280;21820;51.112;13.762;2023-01-20T00:48:36;98733.25;;;21.42;63.09
35704;BME280;21820;51.112;13.762;2023-01-20T00:51:02;98720.81;;;21.36;64.15
35704;BME280;21820;51.112;13.762;2023-01-20T00:53:28;98739.31;;;21.43;63.44
35704;BME280;21820;51.112;13.762;2023-01-20T00:55:55;98742.41;;;21.38;62.59
35704;BME280;21820;51.112;13.762;2023-01-20T00:58:22;98723.41;;;21.28;62.64
35704;BME280;21820;51.112;13.762;2023-01-20T01:00:49;98747.50;;;21.48;63.50
35704;BME280;21820;51.112;13.762;2023-01-20T01:03:15;98755.47;;;21.38;63.28
35704;BME280;21820;51.112;13.762;2023-01-20T01:05:42;98758.72;;;21.40;63.36
35704;BME280;21820;51.112;13.762;2023-01-20T01:08:08;98764.97;;;21.47;63.73
35704;BME280;21820;51.112;13.762;2023-01-20T01:10:35;98774.13;;;21.43;63.20
35704;BME280;21820;51.112;13.762;2023-01-20T01:13:03;98781.13;;;21.43;63.97
35704;BME280;21820;51.112;13.762;2023-01-20T01:15:29;98780.66;;;21.47;63.09
35704;BME280;21820;51.112;13.762;2023-01-20T01:17:57;98779.19;;;21.45;62.99
35704;BME280;21820;51.112;13.762;2023-01-20T01:20:26;98784.44;;;21.45;63.27
35704;BME280;21820;51.112;13.762;2023-01-20T01:22:53;98791.44;;;21.44;62.55
35704;BME280;21820;51.112;13.762;2023-01-20T01:25:20;98779.16;;;21.37;62.32
35704;BME280;21820;51.112;13.762;2023-01-20T01:27:47;98795.97;;;21.34;62.78
35704;BME280;21820;51.112;13.762;2023-01-20T01:30:13;98799.69;;;21.24;61.41
35704;BME280;21820;51.112;13.762;2023-01-20T01:32:43;98803.41;;;21.13;62.08
35704;BME280;21820;51.112;13.762;2023-01-20T01:35:09;98807.28;;;21.09;61.31
35704;BME280;21820;51.112;13.762;2023-01-20T01:37:36;98812.84;;;21.06;61.70
35704;BME280;21820;51.112;13.762;2023-01-20T01:40:03;98814.97;;;21.11;61.90
35704;BME280;21820;51.112;13.762;2023-01-20T01:42:29;98808.00;;;21.19;60.87
35704;BME280;21820;51.112;13.762;2023-01-20T01:47:47;98808.41;;;21.40;61.01
35704;BME280;21820;51.112;13.762;2023-01-20T01:53:06;98809.50;;;21.63;60.33
35704;BME280;21820;51.112;13.762;2023-01-20T01:55:36;98812.41;;;21.60;59.99
35704;BME280;21820;51.112;13.762;2023-01-20T01:58:05;98817.47;;;21.54;59.66
35704;BME280;21820;51.112;13.762;2023-01-20T02:00:38;98816.66;;;21.53;60.61
35704;BME280;21820;51.112;13.762;2023-01-20T02:03:05;98824.78;;;21.50;60.67
35704;BME280;21820;51.112;13.762;2023-01-20T02:05:33;98831.34;;;21.46;60.43
35704;BME280;21820;51.112;13.762;2023-01-20T02:08:02;98825.44;;;21.44;60.70
35704;BME280;21820;51.112;13.762;2023-01-20T02:10:28;98823.13;;;21.41;60.55
35704;BME280;21820;51.112;13.762;2023-01-20T02:12:56;98817.56;;;21.36;60.62
35704;BME280;21820;51.112;13.762;2023-01-20T02:15:30;98811.97;;;21.31;60.40
35704;BME280;21820;51.112;13.762;2023-01-20T02:18:28;98821.78;;;21.29;60.98
35704;BME280;21820;51.112;13.762;2023-01-20T02:21:07;98824.38;;;21.29;61.20
35704;BME280;21820;51.112;13.762;2023-01-20T02:23:57;98830.91;;;21.25;61.24
35704;BME280;21820;51.112;13.762;2023-01-20T02:32:08;98832.81;;;21.15;61.57
35704;BME280;21820;51.112;13.762;2023-01-20T02:34:53;98834.25;;;21.10;61.31
35704;BME280;21820;51.112;13.762;2023-01-20T02:37:28;98836.03;;;21.09;62.24
35704;BME280;21820;51.112;13.762;2023-01-20T02:45:12;98841.22;;;21.01;62.02
35704;BME280;21820;51.112;13.762;2023-01-20T02:47:44;98841.56;;;21.06;61.87
35704;BME280;21820;51.112;13.762;2023-01-20T02:53:06;98853.81;;;21.06;61.95
35704;BME280;21820;51.112;13.762;2023-01-20T02:55:45;98857.41;;;21.05;63.36
35704;BME280;21820;51.112;13.762;2023-01-20T02:58:20;98853.00;;;21.05;63.42
35704;BME280;21820;51.112;13.762;2023-01-20T03:00:58;98865.25;;;21.05;64.25
35704;BME280;21820;51.112;13.762;2023-01-20T03:03:32;98853.00;;;21.05;63.29
35704;BME280;21820;51.112;13.762;2023-01-20T03:06:02;98856.91;;;21.01;62.57
35704;BME280;21820;51.112;13.762;2023-01-20T03:08:31;98865.94;;;21.07;62.93
35704;BME280;21820;51.112;13.762;2023-01-20T03:11:08;98872.25;;;21.04;63.37
35704;BME280;21820;51.112;13.762;2023-01-20T03:13:45;98876.06;;;21.10;63.10
35704;BME280;21820;51.112;13.762;2023-01-20T03:16:17;98869.69;;;21.12;64.01
35704;BME280;21820;51.112;13.762;2023-01-20T03:18:44;98872.97;;;21.14;64.03
35704;BME280;21820;51.112;13.762;2023-01-20T03:21:11;98871.88;;;21.17;63.19
35704;BME280;21820;51.112;13.762;2023-01-20T03:23:47;98881.19;;;21.19;64.13
35704;BME280;21820;51.112;13.762;2023-01-20T03:26:20;98882.44;;;21.07;62.31
35704;BME280;21820;51.112;13.762;2023-01-20T03:28:47;98881.72;;;20.97;61.94
35704;BME280;21820;51.112;13.762;2023-01-20T03:31:22;98889.81;;;20.94;62.45
35704;BME280;21820;51.112;13.762;2023-01-20T03:33:52;98872.44;;;20.85;62.08
35704;BME280;21820;51.112;13.762;2023-01-20T03:36:22;98894.78;;;20.97;62.44
35704;BME280;21820;51.112;13.762;2023-01-20T03:38:49;98900.38;;;21.02;61.64
35704;BME280;21820;51.112;13.762;2023-01-20T03:41:28;98902.41;;;21.16;61.18
35704;BME280;21820;51.112;13.762;2023-01-20T03:44:11;98902.66;;;21.31;60.80
35704;BME280;21820;51.112;13.762;2023-01-20T03:49:51;98896.72;;;21.46;60.39
35704;BME280;21820;51.112;13.762;2023-01-20T03:52:30;98907.34;;;21.45;60.48
35704;BME280;21820;51.112;13.762;2023-01-20T03:55:13;98905.84;;;21.42;60.87
35704;BME280;21820;51.112;13.762;2023-01-20T03:57:47;98910.09;;;21.43;60.22
35704;BME280;21820;51.112;13.762;2023-01-20T04:00:19;98904.53;;;21.38;60.40
35704;BME280;21820;51.112;13.762;2023-01-20T04:02:48;98908.72;;;21.31;60.96
35704;BME280;21820;51.112;13.762;2023-01-20T04:05:16;98914.94;;;21.30;60.84
35704;BME280;21820;51.112;13.762;2023-01-20T04:07:47;98913.59;;;21.26;61.42
35704;BME280;21820;51.112;13.762;2023-01-20T04:10:16;98919.13;;;21.23;60.89
35704;BME280;21820;51.112;13.762;2023-01-20T04:12:43;98903.63;;;21.04;61.10
35704;BME280;21820;51.112;13.762;2023-01-20T04:15:10;98917.72;;;21.11;61.50
35704;BME280;21820;51.112;13.762;2023-01-20T04:17:37;98916.75;;;21.12;61.73
35704;BME280;21820;51.112;13.762;2023-01-20T04:20:09;98916.06;;;21.02;61.79
35704;BME280;21820;51.112;13.762;2023-01-20T04:22:54;98929.13;;;21.02;62.15
35704;BME280;21820;51.112;13.762;2023-01-20T04:25:28;98930.22;;;21.00;61.96
35704;BME280;21820;51.112;13.762;2023-01-20T04:27:58;98933.66;;;21.00;61.94
35704;BME280;21820;51.112;13.762;2023-01-20T04:30:24;98940.94;;;20.97;62.12
35704;BME280;21820;51.112;13.762;2023-01-20T04:32:51;98932.91;;;20.90;61.80
35704;BME280;21820;51.112;13.762;2023-01-20T04:35:19;98936.59;;;20.97;62.23
35704;BME280;21820;51.112;13.762;2023-01-20T04:37:46;98932.91;;;21.08;61.41
35704;BME280;21820;51.112;13.762;2023-01-20T04:40:12;98928.00;;;21.30;60.75
35704;BME280;21820;51.112;13.762;2023-01-20T04:42:39;98939.31;;;21.64;60.19
35704;BME280;21820;51.112;13.762;2023-01-20T04:45:06;98942.56;;;21.92;59.52
35704;BME280;21820;51.112;13.762;2023-01-20T04:47:33;98944.13;;;22.19;58.76
35704;BME280;21820;51.112;13.762;2023-01-20T04:49:59;98958.94;;;22.36;57.69
35704;BME280;21820;51.112;13.762;2023-01-20T04:52:26;98955.38;;;22.53;57.05
35704;BME280;21820;51.112;13.762;2023-01-20T04:54:52;98966.88;;;22.68;56.60
35704;BME280;21820;51.112;13.762;2023-01-20T04:57:19;98966.06;;;22.67;56.80
35704;BME280;21820;51.112;13.762;2023-01-20T04:59:46;98967.19;;;22.73;56.90
35704;BME280;21820;51.112;13.762;2023-01-20T05:02:12;98961.97;;;22.73;56.83
35704;BME280;21820;51.112;13.762;2023-01-20T05:04:38;98971.16;;;22.85;56.44
35704;BME280;21820;51.112;13.762;2023-01-20T05:07:05;98966.25;;;22.74;56.79
35704;BME280;21820;51.112;13.762;2023-01-20T05:09:31;98980.34;;;22.89;56.39
35704;BME280;21820;51.112;13.762;2023-01-20T05:12:01;98980.00;;;22.92;56.25
35704;BME280;21820;51.112;13.762;2023-01-20T05:14:30;98983.94;;;22.96;56.20
35704;BME280;21820;51.112;13.762;2023-01-20T05:16:57;98968.19;;;22.72;56.74
35704;BME280;21820;51.112;13.762;2023-01-20T05:19:23;98986.56;;;22.96;55.62
35704;BME280;21820;51.112;13.762;2023-01-20T05:21:53;98990.16;;;22.95;56.35
35704;BME280;21820;51.112;13.762;2023-01-20T05:24:19;98994.09;;;22.91;56.46
35704;BME280;21820;51.112;13.762;2023-01-20T05:26:45;98998.69;;;22.97;56.10
35704;BME280;21820;51.112;13.762;2023-01-20T05:29:12;98990.50;;;22.92;56.55
35704;BME280;21820;51.112;13.762;2023-01-20T05:31:38;98988.84;;;22.91;55.88
35704;BME280;21820;51.112;13.762;2023-01-20T05:34:08;99005.91;;;23.03;56.33
35704;BME280;21820;51.112;13.762;2023-01-20T05:36:35;99008.19;;;22.98;56.10
35704;BME280;21820;51.112;13.762;2023-01-20T05:39:01;99001.97;;;22.99;56.26
35704;BME280;21820;51.112;13.762;2023-01-20T05:41:28;99001.31;;;22.97;56.55
35704;BME280;21820;51.112;13.762;2023-01-20T05:43:57;99000.66;;;22.95;55.91
35704;BME280;21820;51.112;13.762;2023-01-20T05:46:24;99014.44;;;22.97;56.56
35704;BME280;21820;51.112;13.762;2023-01-20T05:48:51;99013.09;;;22.93;56.19
35704;BME280;21820;51.112;13.762;2023-01-20T05:51:18;99018.34;;;22.93;56.42
35704;BME280;21820;51.112;13.762;2023-01-20T05:53:45;99020.97;;;22.93;56.17
35704;BME280;21820;51.112;13.762;2023-01-20T05:56:11;99021.97;;;22.92;56.75
35704;BME280;21820;51.112;13.762;2023-01-20T05:58:44;99027.66;;;22.87;56.06
35704;BME280;21820;51.112;13.762;2023-01-20T06:01:12;99020.59;;;22.72;54.93
35704;BME280;21820;51.112;13.762;2023-01-20T06:03:42;99035.66;;;22.70;55.95
35704;BME280;21820;51.112;13.762;2023-01-20T06:06:09;99035.31;;;22.65;55.79
35704;BME280;21820;51.112;13.762;2023-01-20T06:08:41;99036.78;;;22.59;56.75
35704;BME280;21820;51.112;13.762;2023-01-20T06:11:08;99039.66;;;22.48;57.20
35704;BME280;21820;51.112;13.762;2023-01-20T06:13:35;99040.50;;;22.49;57.04
35704;BME280;21820;51.112;13.762;2023-01-20T06:16:04;99027.69;;;22.38;56.93
35704;BME280;21820;51.112;13.762;2023-01-20T06:18:32;99037.00;;;22.40;57.44
35704;BME280;21820;51.112;13.762;2023-01-20T06:21:01;99040.31;;;22.42;57.57
35704;BME280;21820;51.112;13.762;2023-01-20T06:23:30;99049.94;;;22.42;57.44
35704;BME280;21820;51.112;13.762;2023-01-20T06:26:05;99040.81;;;22.46;57.79
35704;BME280;21820;51.112;13.762;2023-01-20T06:28:32;99044.06;;;22.48;57.42
35704;BME280;21820;51.112;13.762;2023-01-20T06:31:03;99055.22;;;22.50;57.24
35704;BME280;21820;51.112;13.762;2023-01-20T06:33:34;99060.84;;;22.55;57.50
35704;BME280;21820;51.112;13.762;2023-01-20T06:36:01;99057.25;;;22.56;57.30
35704;BME280;21820;51.112;13.762;2023-01-20T06:38:28;99041.78;;;22.45;57.49
35704;BME280;21820;51.112;13.762;2023-01-20T06:41:02;99070.50;;;22.54;57.69
35704;BME280;21820;51.112;13.762;2023-01-20T06:43:30;99065.47;;;22.61;57.02
35704;BME280;21820;51.112;13.762;2023-01-20T06:46:05;99070.38;;;22.64;56.92
35704;BME280;21820;51.112;13.762;2023-01-20T06:48:32;99071.69;;;22.68;56.69
35704;BME280;21820;51.112;13.762;2023-01-20T06:51:06;99069.03;;;22.60;56.97
35704;BME280;21820;51.112;13.762;2023-01-20T06:53:33;99074.66;;;22.73;56.52
35704;BME280;21820;51.112;13.762;2023-01-20T06:56:00;99074.97;;;22.70;57.32
35704;BME280;21820;51.112;13.762;2023-01-20T06:58:29;99064.47;;;22.62;57.21
35704;BME280;21820;51.112;13.762;2023-01-20T07:00:56;99086.13;;;22.72;56.47
35704;BME280;21820;51.112;13.762;2023-01-20T07:03:23;99075.28;;;22.67;57.35
35704;BME280;21820;51.112;13.762;2023-01-20T07:05:53;99074.66;;;22.73;56.90
35704;BME280;21820;51.112;13.762;2023-01-20T07:08:21;99092.03;;;22.74;57.02
35704;BME280;21820;51.112;13.762;2023-01-20T07:10:46;99100.50;;;22.68;57.03
35704;BME280;21820;51.112;13.762;2023-01-20T07:13:12;99095.91;;;22.62;57.55
35704;BME280;21820;51.112;13.762;2023-01-20T07:15:37;99105.22;;;22.56;57.19
35704;BME280;21820;51.112;13.762;2023-01-20T07:18:03;99094.81;;;22.39;57.83
35704;BME280;21820;51.112;13.762;2023-01-20T07:20:28;99120.34;;;22.45;58.13
35704;BME280;21820;51.112;13.762;2023-01-20T07:22:53;99119.91;;;22.49;57.56
35704;BME280;21820;51.112;13.762;2023-01-20T07:25:19;99128.22;;;22.45;58.18
35704;BME280;21820;51.112;13.762;2023-01-20T07:27:44;99141.16;;;22.46;57.47
35704;BME280;21820;51.112;13.762;2023-01-20T07:30:10;99131.81;;;22.44;57.43
35704;BME280;21820;51.112;13.762;2023-01-20T07:32:35;99141.66;;;22.50;58.08
35704;BME280;21820;51.112;13.762;2023-01-20T07:35:00;99144.97;;;22.52;57.76
35704;BME280;21820;51.112;13.762;2023-01-20T07:37:26;99124.94;;;22.43;57.54
35704;BME280;21820;51.112;13.762;2023-01-20T07:39:51;99148.94;;;22.56;57.89
35704;BME280;21820;51.112;13.762;2023-01-20T07:42:16;99156.66;;;22.57;57.14
35704;BME280;21820;51.112;13.762;2023-01-20T07:44:42;99157.97;;;22.61;57.82
35704;BME280;21820;51.112;13.762;2023-01-20T07:47:07;99156.81;;;22.56;57.70
35704;BME280;21820;51.112;13.762;2023-01-20T07:49:32;99166.97;;;22.59;57.65
35704;BME280;21820;51.112;13.762;2023-01-20T07:51:58;99172.91;;;22.69;57.04
35704;BME280;21820;51.112;13.762;2023-01-20T07:54:24;99175.38;;;22.70;56.91
35704;BME280;21820;51.112;13.762;2023-01-20T07:56:49;99179.13;;;22.68;57.50
35704;BME280;21820;51.112;13.762;2023-01-20T07:59:15;99188.84;;;22.75;56.78
35704;BME280;21820;51.112;13.762;2023-01-20T08:01:41;99191.50;;;22.83;56.58
35704;BME280;21820;51.112;13.762;2023-01-20T08:04:07;99185.56;;;22.81;56.69
35704;BME280;21820;51.112;13.762;2023-01-20T08:06:32;99189.50;;;22.77;56.74
35704;BME280;21820;51.112;13.762;2023-01-20T08:08:59;99175.88;;;22.74;56.93
35704;BME280;21820;51.112;13.762;2023-01-20T08:11:25;99198.19;;;22.86;56.61
35704;BME280;21820;51.112;13.762;2023-01-20T08:13:52;99198.19;;;22.86;56.78
35704;BME280;21820;51.112;13.762;2023-01-20T08:16:17;99205.34;;;22.76;57.05
35704;BME280;21820;51.112;13.762;2023-01-20T08:18:43;99205.34;;;22.76;56.84
35704;BME280;21820;51.112;13.762;2023-01-20T08:21:21;99200.75;;;22.70;57.04
35704;BME280;21820;51.112;13.762;2023-01-20T08:23:47;99203.34;;;22.62;57.75
35704;BME280;21820;51.112;13.762;2023-01-20T08:26:13;99211.28;;;22.52;57.79
35704;BME280;21820;51.112;13.762;2023-01-20T08:28:38;99198.56;;;22.40;57.85
35704;BME280;21820;51.112;13.762;2023-01-20T08:31:09;99199.94;;;22.44;58.28
35704;BME280;21820;51.112;13.762;2023-01-20T08:33:35;99203.53;;;22.43;57.84
35704;BME280;21820;51.112;13.762;2023-01-20T08:36:13;99222.88;;;22.50;58.25
35704;BME280;21820;51.112;13.762;2023-01-20T08:38:39;99216.41;;;22.54;57.70
35704;BME280;21820;51.112;13.762;2023-01-20T08:41:06;99222.31;;;22.56;57.37
35704;BME280;21820;51.112;13.762;2023-01-20T08:43:32;99231.81;;;22.57;57.30
35704;BME280;21820;51.112;13.762;2023-01-20T08:46:04;99234.25;;;22.58;57.58
35704;BME280;21820;51.112;13.762;2023-01-20T08:48:31;99236.72;;;22.60;57.15
35704;BME280;21820;51.112;13.762;2023-01-20T08:50:56;99243.91;;;22.58;57.89
35704;BME280;21820;51.112;13.762;2023-01-20T08:53:22;99246.38;;;22.59;57.94
35704;BME280;21820;51.112;13.762;2023-01-20T08:55:57;99246.25;;;22.61;57.51
35704;BME280;21820;51.112;13.762;2023-01-20T09:00:48;99249.28;;;22.74;57.36
35704;BME280;21820;51.112;13.762;2023-01-20T09:03:13;99252.22;;;22.71;57.50
35704;BME280;21820;51.112;13.762;2023-01-20T09:05:39;99252.84;;;22.73;57.22
35704;BME280;21820;51.112;13.762;2023-01-20T09:08:04;99254.19;;;22.77;57.33
35704;BME280;21820;51.112;13.762;2023-01-20T09:10:33;99252.25;;;22.79;56.74
35704;BME280;21820;51.112;13.762;2023-01-20T09:12:58;99252.69;;;22.74;56.95
35704;BME280;21820;51.112;13.762;2023-01-20T09:15:23;99265.88;;;22.82;57.05
35704;BME280;21820;51.112;13.762;2023-01-20T09:17:49;99265.41;;;22.87;57.26
35704;BME280;21820;51.112;13.762;2023-01-20T09:20:15;99268.00;;;22.87;56.94
35704;BME280;21820;51.112;13.762;2023-01-20T09:22:40;99268.34;;;22.84;56.76
35704;BME280;21820;51.112;13.762;2023-01-20T09:25:07;99271.72;;;22.76;57.23
35704;BME280;21820;51.112;13.762;2023-01-20T09:27:33;99280.53;;;22.67;57.40
35704;BME280;21820;51.112;13.762;2023-01-20T09:29:58;99278.97;;;22.57;57.62
35704;BME280;21820;51.112;13.762;2023-01-20T09:32:24;99280.75;;;22.56;57.36
35704;BME280;21820;51.112;13.762;2023-01-20T09:34:49;99280.59;;;22.58;58.06
35704;BME280;21820;51.112;13.762;2023-01-20T09:37:14;99286.44;;;22.52;58.31
35704;BME280;21820;51.112;13.762;2023-01-20T09:39:58;99290.03;;;22.51;57.74
35704;BME280;21820;51.112;13.762;2023-01-20T09:45:56;99286.81;;;22.57;57.41
35704;BME280;21820;51.112;13.762;2023-01-20T09:48:36;99283.56;;;22.63;57.73
35704;BME280;21820;51.112;13.762;2023-01-20T09:51:52;99284.09;;;22.66;57.88
35704;BME280;21820;51.112;13.762;2023-01-20T09:54:44;99285.13;;;22.73;57.50
35704;BME280;21820;51.112;13.762;2023-01-20T09:57:12;99254.38;;;22.58;57.27
35704;BME280;21820;51.112;13.762;2023-01-20T09:59:43;99279.41;;;22.78;57.27
35704;BME280;21820;51.112;13.762;2023-01-20T10:02:19;99279.78;;;22.83;56.86
35704;BME280;21820;51.112;13.762;2023-01-20T10:04:50;99280.09;;;22.80;56.91
35704;BME280;21820;51.112;13.762;2023-01-20T10:07:26;99285.03;;;22.83;56.80
35704;BME280;21820;51.112;13.762;2023-01-20T10:12:56;99293.50;;;22.77;57.13
35704;BME280;21820;51.112;13.762;2023-01-20T10:15:29;99283.03;;;22.77;57.08
35704;BME280;21820;51.112;13.762;2023-01-20T10:18:05;99295.38;;;22.92;56.53
35704;BME280;21820;51.112;13.762;2023-01-20T10:23:38;99294.06;;;22.88;56.50
35704;BME280;21820;51.112;13.762;2023-01-20T10:26:10;99295.50;;;22.83;56.78
35704;BME280;21820;51.112;13.762;2023-01-20T10:28:41;99290.38;;;22.73;56.92
35704;BME280;21820;51.112;13.762;2023-01-20T10:31:09;99291.50;;;22.71;57.42
35704;BME280;21820;51.112;13.762;2023-01-20T10:33:42;99288.00;;;22.62;57.90
35704;BME280;21820;51.112;13.762;2023-01-20T10:36:24;99293.03;;;22.56;58.16
35704;BME280;21820;51.112;13.762;2023-01-20T10:41:38;99293.44;;;22.51;57.74
35704;BME280;21820;51.112;13.762;2023-01-20T10:44:11;99286.22;;;22.45;57.45
35704;BME280;21820;51.112;13.762;2023-01-20T10:47:16;99310.09;;;22.60;57.46
35704;BME280;21820;51.112;13.762;2023-01-20T11:00:38;99309.50;;;22.66;57.36
35704;BME280;21820;51.112;13.762;2023-01-20T11:03:05;99309.72;;;22.72;57.25
35704;BME280;21820;51.112;13.762;2023-01-20T11:05:36;99321.63;;;22.67;57.17
35704;BME280;21820;51.112;13.762;2023-01-20T11:08:14;99321.81;;;22.73;57.46
35704;BME280;21820;51.112;13.762;2023-01-20T11:10:40;99318.72;;;22.78;57.32
35704;BME280;21820;51.112;13.762;2023-01-20T11:13:08;99322.34;;;22.77;57.49
35704;BME280;21820;51.112;13.762;2023-01-20T11:15:37;99327.06;;;22.73;57.39
35704;BME280;21820;51.112;13.762;2023-01-20T11:21:04;99317.78;;;22.79;57.65
35704;BME280;21820;51.112;13.762;2023-01-20T11:23:36;99325.13;;;22.75;57.09
35704;BME280;21820;51.112;13.762;2023-01-20T11:26:24;99327.53;;;22.69;58.11
35704;BME280;21820;51.112;13.762;2023-01-20T11:29:21;99327.00;;;22.65;57.57
35704;BME280;21820;51.112;13.762;2023-01-20T11:31:52;99330.38;;;22.58;57.62
35704;BME280;21820;51.112;13.762;2023-01-20T11:34:33;99327.97;;;22.47;57.72
35704;BME280;21820;51.112;13.762;2023-01-20T11:39:29;99339.13;;;22.49;58.33
35704;BME280;21820;51.112;13.762;2023-01-20T11:44:46;99352.22;;;22.49;57.86
35704;BME280;21820;51.112;13.762;2023-01-20T11:47:23;99352.06;;;22.50;58.43
35704;BME280;21820;51.112;13.762;2023-01-20T11:52:42;99357.72;;;22.55;57.57
35704;BME280;21820;51.112;13.762;2023-01-20T11:55:12;99355.63;;;22.59;58.15
35704;BME280;21820;51.112;13.762;2023-01-20T11:57:52;99367.06;;;22.58;58.05
35704;BME280;21820;51.112;13.762;2023-01-20T12:00:29;99371.19;;;22.60;57.48
35704;BME280;21820;51.112;13.762;2023-01-20T12:02:59;99372.09;;;22.69;57.35
35704;BME280;21820;51.112;13.762;2023-01-20T12:05:38;99381.22;;;22.65;57.73
35704;BME280;21820;51.112;13.762;2023-01-20T12:08:15;99377.38;;;22.59;57.32
35704;BME280;21820;51.112;13.762;2023-01-20T12:10:42;99383.25;;;22.71;57.10
35704;BME280;21820;51.112;13.762;2023-01-20T12:13:27;99385.56;;;22.74;58.10
35704;BME280;21820;51.112;13.762;2023-01-20T12:15:58;99391.00;;;22.80;57.22
35704;BME280;21820;51.112;13.762;2023-01-20T12:21:07;99382.09;;;22.73;56.88
35704;BME280;21820;51.112;13.762;2023-01-20T12:26:35;99399.59;;;22.73;57.95
35704;BME280;21820;51.112;13.762;2023-01-20T12:29:12;99393.63;;;22.63;57.29
35704;BME280;21820;51.112;13.762;2023-01-20T12:31:42;99399.47;;;22.57;50.98
35704;BME280;21820;51.112;13.762;2023-01-20T12:34:14;99399.31;;;22.41;47.80
35704;BME280;21820;51.112;13.762;2023-01-20T12:44:52;99413.81;;;22.18;48.56
35704;BME280;21820;51.112;13.762;2023-01-20T12:47:49;99418.75;;;22.21;48.47
35704;BME280;21820;51.112;13.762;2023-01-20T12:50:28;99413.22;;;22.24;47.83
35704;BME280;21820;51.112;13.762;2023-01-20T13:10:12;99428.44;;;22.38;47.26
35704;BME280;21820;51.112;13.762;2023-01-20T13:13:07;99431.28;;;22.44;46.42
35704;BME280;21820;51.112;13.762;2023-01-20T13:15:46;99437.31;;;22.45;47.21
35704;BME280;21820;51.112;13.762;2023-01-20T13:20:57;99435.38;;;22.47;47.53
35704;BME280;21820;51.112;13.762;2023-01-20T13:23:32;99439.94;;;22.45;48.25
35704;BME280;21820;51.112;13.762;2023-01-20T13:26:00;99437.69;;;22.50;47.58
35704;BME280;21820;51.112;13.762;2023-01-20T13:28:27;99425.81;;;22.38;48.02
35704;BME280;21820;51.112;13.762;2023-01-20T13:30:55;99438.16;;;22.45;48.62
35704;BME280;21820;51.112;13.762;2023-01-20T13:33:39;99442.31;;;22.38;48.70
35704;BME280;21820;51.112;13.762;2023-01-20T13:36:19;99445.25;;;22.35;48.35
35704;BME280;21820;51.112;13.762;2023-01-20T13:38:48;99444.63;;;22.24;48.33
35704;BME280;21820;51.112;13.762;2023-01-20T13:41:51;99449.25;;;22.12;42.99
35704;BME280;21820;51.112;13.762;2023-01-20T13:44:37;99439.28;;;21.98;43.72
35704;BME280;21820;51.112;13.762;2023-01-20T13:47:06;99453.00;;;22.10;44.65
35704;BME280;21820;51.112;13.762;2023-01-20T13:49:49;99453.81;;;22.10;46.38
35704;BME280;21820;51.112;13.762;2023-01-20T13:58:18;99464.50;;;22.17;46.47
35704;BME280;21820;51.112;13.762;2023-01-20T14:00:47;99458.97;;;22.20;46.46
35704;BME280;21820;51.112;13.762;2023-01-20T14:03:23;99462.28;;;22.22;46.12
35704;BME280;21820;51.112;13.762;2023-01-20T14:06:00;99468.19;;;22.24;44.87
35704;BME280;21820;51.112;13.762;2023-01-20T14:08:28;99470.22;;;22.30;42.90
35704;BME280;21820;51.112;13.762;2023-01-20T14:11:15;99464.03;;;22.31;41.54
35704;BME280;21820;51.112;13.762;2023-01-20T14:13:49;99456.66;;;22.17;42.31
35704;BME280;21820;51.112;13.762;2023-01-20T14:16:20;99490.22;;;22.31;43.27
35704;BME280;21820;51.112;13.762;2023-01-20T14:18:47;99484.84;;;22.32;43.36
35704;BME280;21820;51.112;13.762;2023-01-20T14:21:21;99479.31;;;22.35;45.23
35704;BME280;21820;51.112;13.762;2023-01-20T14:23:47;99488.59;;;22.47;45.77
35704;BME280;21820;51.112;13.762;2023-01-20T14:26:27;99495.75;;;22.55;45.89
35704;BME280;21820;51.112;13.762;2023-01-20T14:28:58;99495.56;;;22.66;46.98
35704;BME280;21820;51.112;13.762;2023-01-20T14:31:36;99494.56;;;22.67;47.27
35704;BME280;21820;51.112;13.762;2023-01-20T14:34:25;99491.78;;;22.68;47.42
35704;BME280;21820;51.112;13.762;2023-01-20T14:36:52;99504.44;;;22.73;47.71
35704;BME280;21820;51.112;13.762;2023-01-20T14:39:25;99504.75;;;22.70;47.75
35704;BME280;21820;51.112;13.762;2023-01-20T14:44:23;99511.81;;;22.87;48.66
35704;BME280;21820;51.112;13.762;2023-01-20T14:46:51;99520.63;;;22.86;48.85
35704;BME280;21820;51.112;13.762;2023-01-20T14:49:19;99524.16;;;22.77;49.28